sensor_id;sensor_type;location;lat;lon;timestamp;P1;durP1;ratioP1;P2;durP2;ratioP2
7645;SDS011;3864;48.180;14.178;2023-12-20T00:00:34;33.33;;;18.77;;
7645;SDS011;3864;48.180;14.178;2023-12-20T00:03:02;29.88;;;19.02;;
7645;SDS011;3864;48.180;14.178;2023-12-20T00:05:29;31.27;;;18.50;;
7645;SDS011;3864;48.180;14.178;2023-12-20T00:07:57;30.33;;;18.33;;
7645;SDS011;3864;48.180;14.178;2023-12-20T00:10:24;30.83;;;17.17;;
7645;SDS011;3864;48.180;14.178;2023-12-20T00:12:51;33.88;;;18.45;;
7645;SDS011;3864;48.180;14.178;2023-12-20T00:15:20;30.00;;;18.92;;
7645;SDS011;3864;48.180;14.178;2023-12-20T00:17:47;25.25;;;17.20;;
7645;SDS011;3864;48.180;14.178;2023-12-20T00:20:14;28.90;;;17.50;;
7645;SDS011;3864;48.180;14.178;2023-12-20T00:22:41;28.02;;;17.13;;
7645;SDS011;3864;48.180;14.178;2023-12-20T00:25:08;28.35;;;16.45;;
7645;SDS011;3864;48.180;14.178;2023-12-20T00:27:35;30.42;;;17.85;;
7645;SDS011;3864;48.180;14.178;2023-12-20T00:32:31;26.25;;;15.88;;
7645;SDS011;3864;48.180;14.178;2023-12-20T00:38:49;22.13;;;13.90;;
7645;SDS011;3864;48.180;14.178;2023-12-20T00:41:16;20.90;;;12.82;;
7645;SDS011;3864;48.180;14.178;2023-12-20T00:46:10;16.83;;;10.77;;
7645;SDS011;3864;48.180;14.178;2023-12-20T00:48:39;18.77;;;10.85;;
7645;SDS011;3864;48.180;14.178;2023-12-20T00:51:07;16.27;;;10.70;;
7645;SDS011;3864;48.180;14.178;2023-12-20T00:53:34;17.50;;;11.57;;
7645;SDS011;3864;48.180;14.178;2023-12-20T00:56:01;17.45;;;11.55;;
7645;SDS011;3864;48.180;14.178;2023-12-20T01:00:55;16.83;;;9.90;;
7645;SDS011;3864;48.180;14.178;2023-12-20T01:03:23;15.80;;;10.82;;
7645;SDS011;3864;48.180;14.178;2023-12-20T01:05:51;18.58;;;11.73;;
7645;SDS011;3864;48.180;14.178;2023-12-20T01:08:18;19.52;;;11.98;;
7645;SDS011;3864;48.180;14.178;2023-12-20T01:10:45;16.95;;;11.15;;
7645;SDS011;3864;48.180;14.178;2023-12-20T01:13:12;17.75;;;10.32;;
7645;SDS011;3864;48.180;14.178;2023-12-20T01:15:39;17.52;;;10.88;;
7645;SDS011;3864;48.180;14.178;2023-12-20T01:18:06;17.23;;;10.38;;
7645;SDS011;3864;48.180;14.178;2023-12-20T01:20:33;20.10;;;12.10;;
7645;SDS011;3864;48.180;14.178;2023-12-20T01:23:02;15.95;;;11.85;;
7645;SDS011;3864;48.180;14.178;2023-12-20T01:25:30;19.38;;;10.10;;
7645;SDS011;3864;48.180;14.178;2023-12-20T01:27:57;18.42;;;11.68;;
7645;SDS011;3864;48.180;14.178;2023-12-20T01:30:24;19.92;;;10.85;;
7645;SDS011;3864;48.180;14.178;2023-12-20T01:32:51;19.40;;;13.35;;
7645;SDS011;3864;48.180;14.178;2023-12-20T01:35:18;19.15;;;12.40;;
7645;SDS011;3864;48.180;14.178;2023-12-20T01:37:45;18.80;;;10.95;;
7645;SDS011;3864;48.180;14.178;2023-12-20T01:40:13;19.05;;;12.05;;
7645;SDS011;3864;48.180;14.178;2023-12-20T01:42:41;20.98;;;12.00;;
7645;SDS011;3864;48.180;14.178;2023-12-20T01:45:08;28.92;;;17.17;;
7645;SDS011;3864;48.180;14.178;2023-12-20T01:47:36;25.75;;;15.55;;
7645;SDS011;3864;48.180;14.178;2023-12-20T01:50:03;24.20;;;14.93;;
7645;SDS011;3864;48.180;14.178;2023-12-20T01:52:33;25.58;;;13.93;;
7645;SDS011;3864;48.180;14.178;2023-12-20T01:55:01;24.95;;;16.27;;
7645;SDS011;3864;48.180;14.178;2023-12-20T01:57:33;28.70;;;17.55;;
7645;SDS011;3864;48.180;14.178;2023-12-20T02:00:00;27.55;;;15.95;;
7645;SDS011;3864;48.180;14.178;2023-12-20T02:02:28;28.20;;;17.35;;
7645;SDS011;3864;48.180;14.178;2023-12-20T02:04:56;26.85;;;16.58;;
7645;SDS011;3864;48.180;14.178;2023-12-20T02:09:50;24.00;;;14.45;;
7645;SDS011;3864;48.180;14.178;2023-12-20T02:12:18;32.40;;;17.65;;
7645;SDS011;3864;48.180;14.178;2023-12-20T02:14:46;32.15;;;18.08;;
7645;SDS011;3864;48.180;14.178;2023-12-20T02:17:14;31.35;;;17.20;;
7645;SDS011;3864;48.180;14.178;2023-12-20T02:19:41;33.35;;;18.58;;
7645;SDS011;3864;48.180;14.178;2023-12-20T02:22:10;32.63;;;18.88;;
7645;SDS011;3864;48.180;14.178;2023-12-20T02:24:38;33.65;;;18.90;;
7645;SDS011;3864;48.180;14.178;2023-12-20T02:27:06;34.35;;;19.08;;
7645;SDS011;3864;48.180;14.178;2023-12-20T02:30:11;34.72;;;19.83;;
7645;SDS011;3864;48.180;14.178;2023-12-20T02:32:38;32.15;;;18.60;;
7645;SDS011;3864;48.180;14.178;2023-12-20T02:35:06;34.33;;;19.38;;
7645;SDS011;3864;48.180;14.178;2023-12-20T02:37:34;32.60;;;19.55;;
7645;SDS011;3864;48.180;14.178;2023-12-20T02:40:01;31.60;;;18.23;;
7645;SDS011;3864;48.180;14.178;2023-12-20T02:42:29;30.13;;;15.80;;
7645;SDS011;3864;48.180;14.178;2023-12-20T02:44:56;27.13;;;15.30;;
7645;SDS011;3864;48.180;14.178;2023-12-20T02:47:23;26.33;;;17.02;;
7645;SDS011;3864;48.180;14.178;2023-12-20T02:49:50;26.58;;;16.52;;
7645;SDS011;3864;48.180;14.178;2023-12-20T02:52:18;29.20;;;16.13;;
7645;SDS011;3864;48.180;14.178;2023-12-20T02:54:46;31.58;;;17.40;;
7645;SDS011;3864;48.180;14.178;2023-12-20T02:57:13;27.08;;;16.77;;
7645;SDS011;3864;48.180;14.178;2023-12-20T02:59:40;30.35;;;17.70;;
7645;SDS011;3864;48.180;14.178;2023-12-20T03:02:07;32.40;;;17.40;;
7645;SDS011;3864;48.180;14.178;2023-12-20T03:04:34;31.17;;;17.52;;
7645;SDS011;3864;48.180;14.178;2023-12-20T03:09:28;27.63;;;15.57;;
7645;SDS011;3864;48.180;14.178;2023-12-20T03:11:57;29.05;;;17.52;;
7645;SDS011;3864;48.180;14.178;2023-12-20T03:14:24;30.85;;;15.63;;
7645;SDS011;3864;48.180;14.178;2023-12-20T03:16:51;29.20;;;15.80;;
7645;SDS011;3864;48.180;14.178;2023-12-20T03:19:18;27.85;;;16.38;;
7645;SDS011;3864;48.180;14.178;2023-12-20T03:24:12;26.67;;;14.43;;
7645;SDS011;3864;48.180;14.178;2023-12-20T03:26:39;27.55;;;15.68;;
7645;SDS011;3864;48.180;14.178;2023-12-20T03:29:07;26.95;;;15.55;;
7645;SDS011;3864;48.180;14.178;2023-12-20T03:31:34;29.20;;;17.05;;
7645;SDS011;3864;48.180;14.178;2023-12-20T03:34:01;24.52;;;14.63;;
7645;SDS011;3864;48.180;14.178;2023-12-20T03:36:28;21.63;;;12.93;;
7645;SDS011;3864;48.180;14.178;2023-12-20T03:38:55;24.92;;;14.38;;
7645;SDS011;3864;48.180;14.178;2023-12-20T03:41:22;24.48;;;13.85;;
7645;SDS011;3864;48.180;14.178;2023-12-20T03:43:50;23.23;;;15.27;;
7645;SDS011;3864;48.180;14.178;2023-12-20T03:46:19;27.60;;;15.88;;
7645;SDS011;3864;48.180;14.178;2023-12-20T03:48:46;22.77;;;13.43;;
7645;SDS011;3864;48.180;14.178;2023-12-20T03:54:23;19.42;;;12.15;;
7645;SDS011;3864;48.180;14.178;2023-12-20T03:59:17;18.83;;;11.05;;
7645;SDS011;3864;48.180;14.178;2023-12-20T04:01:46;16.48;;;11.48;;
7645;SDS011;3864;48.180;14.178;2023-12-20T04:11:17;15.52;;;10.68;;
7645;SDS011;3864;48.180;14.178;2023-12-20T04:13:45;19.02;;;11.65;;
7645;SDS011;3864;48.180;14.178;2023-12-20T04:16:20;17.42;;;12.07;;
7645;SDS011;3864;48.180;14.178;2023-12-20T04:18:48;16.30;;;10.50;;
7645;SDS011;3864;48.180;14.178;2023-12-20T04:21:17;20.30;;;13.13;;
7645;SDS011;3864;48.180;14.178;2023-12-20T04:23:58;19.38;;;12.82;;
7645;SDS011;3864;48.180;14.178;2023-12-20T04:26:25;17.98;;;12.23;;
7645;SDS011;3864;48.180;14.178;2023-12-20T04:28:52;20.77;;;13.30;;
7645;SDS011;3864;48.180;14.178;2023-12-20T04:31:19;18.80;;;12.35;;
7645;SDS011;3864;48.180;14.178;2023-12-20T04:33:46;22.25;;;13.70;;
7645;SDS011;3864;48.180;14.178;2023-12-20T04:36:14;23.52;;;12.95;;
7645;SDS011;3864;48.180;14.178;2023-12-20T04:38:41;21.70;;;13.38;;
7645;SDS011;3864;48.180;14.178;2023-12-20T04:44:25;21.65;;;13.18;;
7645;SDS011;3864;48.180;14.178;2023-12-20T04:46:52;18.33;;;12.75;;
7645;SDS011;3864;48.180;14.178;2023-12-20T04:49:19;25.75;;;13.18;;
7645;SDS011;3864;48.180;14.178;2023-12-20T04:51:47;23.48;;;12.85;;
7645;SDS011;3864;48.180;14.178;2023-12-20T04:54:14;23.08;;;13.75;;
7645;SDS011;3864;48.180;14.178;2023-12-20T04:56:41;19.35;;;13.32;;
7645;SDS011;3864;48.180;14.178;2023-12-20T04:59:08;24.70;;;14.13;;
7645;SDS011;3864;48.180;14.178;2023-12-20T05:04:02;19.35;;;11.90;;
7645;SDS011;3864;48.180;14.178;2023-12-20T05:08:58;17.20;;;10.73;;
7645;SDS011;3864;48.180;14.178;2023-12-20T05:11:25;20.45;;;12.05;;
7645;SDS011;3864;48.180;14.178;2023-12-20T05:16:19;17.23;;;11.50;;
7645;SDS011;3864;48.180;14.178;2023-12-20T05:18:48;18.50;;;10.57;;
7645;SDS011;3864;48.180;14.178;2023-12-20T05:21:17;21.65;;;12.30;;
7645;SDS011;3864;48.180;14.178;2023-12-20T05:23:44;18.58;;;12.23;;
7645;SDS011;3864;48.180;14.178;2023-12-20T05:26:13;17.33;;;11.45;;
7645;SDS011;3864;48.180;14.178;2023-12-20T05:28:40;15.55;;;11.05;;
7645;SDS011;3864;48.180;14.178;2023-12-20T05:31:07;18.50;;;11.95;;
7645;SDS011;3864;48.180;14.178;2023-12-20T05:33:34;20.23;;;12.07;;
7645;SDS011;3864;48.180;14.178;2023-12-20T05:36:01;21.50;;;12.18;;
7645;SDS011;3864;48.180;14.178;2023-12-20T05:38:29;18.10;;;11.52;;
7645;SDS011;3864;48.180;14.178;2023-12-20T05:40:56;20.42;;;12.38;;
7645;SDS011;3864;48.180;14.178;2023-12-20T05:43:24;19.00;;;11.00;;
7645;SDS011;3864;48.180;14.178;2023-12-20T05:45:51;17.98;;;10.45;;
7645;SDS011;3864;48.180;14.178;2023-12-20T05:48:18;18.15;;;10.73;;
7645;SDS011;3864;48.180;14.178;2023-12-20T05:50:45;17.08;;;10.48;;
7645;SDS011;3864;48.180;14.178;2023-12-20T05:53:12;15.25;;;9.98;;
7645;SDS011;3864;48.180;14.178;2023-12-20T05:55:39;17.75;;;10.82;;
7645;SDS011;3864;48.180;14.178;2023-12-20T06:00:34;13.52;;;8.65;;
7645;SDS011;3864;48.180;14.178;2023-12-20T06:03:01;15.25;;;10.20;;
7645;SDS011;3864;48.180;14.178;2023-12-20T06:05:30;16.50;;;10.02;;
7645;SDS011;3864;48.180;14.178;2023-12-20T06:07:56;15.48;;;9.95;;
7645;SDS011;3864;48.180;14.178;2023-12-20T06:10:26;15.15;;;9.40;;
7645;SDS011;3864;48.180;14.178;2023-12-20T06:12:53;18.80;;;10.80;;
7645;SDS011;3864;48.180;14.178;2023-12-20T06:15:21;16.00;;;10.32;;
7645;SDS011;3864;48.180;14.178;2023-12-20T06:17:49;16.27;;;10.07;;
7645;SDS011;3864;48.180;14.178;2023-12-20T06:20:17;13.07;;;8.95;;
7645;SDS011;3864;48.180;14.178;2023-12-20T06:25:10;14.25;;;8.00;;
7645;SDS011;3864;48.180;14.178;2023-12-20T06:27:37;12.80;;;7.80;;
7645;SDS011;3864;48.180;14.178;2023-12-20T06:30:05;13.10;;;8.80;;
7645;SDS011;3864;48.180;14.178;2023-12-20T06:32:34;17.17;;;10.05;;
7645;SDS011;3864;48.180;14.178;2023-12-20T06:35:05;18.20;;;10.70;;
7645;SDS011;3864;48.180;14.178;2023-12-20T06:37:33;15.18;;;9.85;;
7645;SDS011;3864;48.180;14.178;2023-12-20T06:40:00;16.25;;;10.50;;
7645;SDS011;3864;48.180;14.178;2023-12-20T06:42:27;17.48;;;9.85;;
7645;SDS011;3864;48.180;14.178;2023-12-20T06:44:54;16.80;;;9.50;;
7645;SDS011;3864;48.180;14.178;2023-12-20T06:47:20;14.90;;;8.85;;
7645;SDS011;3864;48.180;14.178;2023-12-20T06:49:47;15.40;;;8.57;;
7645;SDS011;3864;48.180;14.178;2023-12-20T06:52:16;17.17;;;8.95;;
7645;SDS011;3864;48.180;14.178;2023-12-20T06:54:43;14.80;;;9.55;;
7645;SDS011;3864;48.180;14.178;2023-12-20T06:57:10;13.43;;;8.43;;
7645;SDS011;3864;48.180;14.178;2023-12-20T06:59:38;14.07;;;9.52;;
7645;SDS011;3864;48.180;14.178;2023-12-20T07:02:06;16.02;;;9.20;;
7645;SDS011;3864;48.180;14.178;2023-12-20T07:04:35;15.95;;;8.48;;
7645;SDS011;3864;48.180;14.178;2023-12-20T07:07:05;13.18;;;7.95;;
7645;SDS011;3864;48.180;14.178;2023-12-20T07:09:34;11.75;;;7.57;;
7645;SDS011;3864;48.180;14.178;2023-12-20T07:12:01;13.13;;;7.97;;
7645;SDS011;3864;48.180;14.178;2023-12-20T07:14:28;11.77;;;6.88;;
7645;SDS011;3864;48.180;14.178;2023-12-20T07:16:55;9.50;;;5.20;;
7645;SDS011;3864;48.180;14.178;2023-12-20T07:19:22;9.27;;;5.32;;
7645;SDS011;3864;48.180;14.178;2023-12-20T07:24:16;6.18;;;3.58;;
7645;SDS011;3864;48.180;14.178;2023-12-20T07:26:45;6.20;;;3.30;;
7645;SDS011;3864;48.180;14.178;2023-12-20T07:29:12;6.07;;;3.17;;
7645;SDS011;3864;48.180;14.178;2023-12-20T07:31:39;6.28;;;3.72;;
7645;SDS011;3864;48.180;14.178;2023-12-20T07:34:06;7.03;;;3.50;;
7645;SDS011;3864;48.180;14.178;2023-12-20T07:36:33;5.13;;;3.30;;
7645;SDS011;3864;48.180;14.178;2023-12-20T07:39:00;5.32;;;2.97;;
7645;SDS011;3864;48.180;14.178;2023-12-20T07:41:30;6.35;;;3.80;;
7645;SDS011;3864;48.180;14.178;2023-12-20T07:43:58;9.85;;;5.93;;
7645;SDS011;3864;48.180;14.178;2023-12-20T07:46:25;9.50;;;4.18;;
7645;SDS011;3864;48.180;14.178;2023-12-20T07:48:52;5.53;;;4.15;;
7645;SDS011;3864;48.180;14.178;2023-12-20T07:53:46;7.97;;;4.38;;
7645;SDS011;3864;48.180;14.178;2023-12-20T07:56:15;7.07;;;5.10;;
7645;SDS011;3864;48.180;14.178;2023-12-20T07:58:42;8.48;;;4.97;;
7645;SDS011;3864;48.180;14.178;2023-12-20T08:01:12;13.10;;;5.85;;
7645;SDS011;3864;48.180;14.178;2023-12-20T08:03:39;7.53;;;4.80;;
7645;SDS011;3864;48.180;14.178;2023-12-20T08:06:06;7.63;;;4.88;;
7645;SDS011;3864;48.180;14.178;2023-12-20T08:08:38;9.13;;;6.00;;
7645;SDS011;3864;48.180;14.178;2023-12-20T08:11:06;8.30;;;4.78;;
7645;SDS011;3864;48.180;14.178;2023-12-20T08:13:33;11.45;;;5.43;;
7645;SDS011;3864;48.180;14.178;2023-12-20T08:15:59;9.32;;;6.05;;
7645;SDS011;3864;48.180;14.178;2023-12-20T08:18:29;10.35;;;6.55;;
7645;SDS011;3864;48.180;14.178;2023-12-20T08:20:56;16.75;;;8.65;;
7645;SDS011;3864;48.180;14.178;2023-12-20T08:23:23;11.73;;;8.50;;
7645;SDS011;3864;48.180;14.178;2023-12-20T08:25:50;9.40;;;5.50;;
7645;SDS011;3864;48.180;14.178;2023-12-20T08:28:17;11.32;;;5.20;;
7645;SDS011;3864;48.180;14.178;2023-12-20T08:30:44;7.75;;;5.25;;
7645;SDS011;3864;48.180;14.178;2023-12-20T08:33:11;11.07;;;6.43;;
7645;SDS011;3864;48.180;14.178;2023-12-20T08:35:42;8.48;;;5.72;;
7645;SDS011;3864;48.180;14.178;2023-12-20T08:38:09;11.80;;;6.70;;
7645;SDS011;3864;48.180;14.178;2023-12-20T08:40:36;11.75;;;5.97;;
7645;SDS011;3864;48.180;14.178;2023-12-20T08:43:04;18.65;;;9.30;;
7645;SDS011;3864;48.180;14.178;2023-12-20T08:45:31;13.98;;;7.72;;
7645;SDS011;3864;48.180;14.178;2023-12-20T08:47:58;23.17;;;13.00;;
7645;SDS011;3864;48.180;14.178;2023-12-20T08:50:25;11.88;;;6.82;;
7645;SDS011;3864;48.180;14.178;2023-12-20T08:52:53;13.10;;;7.35;;
7645;SDS011;3864;48.180;14.178;2023-12-20T08:55:27;18.75;;;9.57;;
7645;SDS011;3864;48.180;14.178;2023-12-20T08:57:56;12.77;;;7.70;;
7645;SDS011;3864;48.180;14.178;2023-12-20T09:00:22;16.77;;;9.70;;
7645;SDS011;3864;48.180;14.178;2023-12-20T09:02:55;13.57;;;7.75;;
7645;SDS011;3864;48.180;14.178;2023-12-20T09:05:28;14.05;;;7.93;;
7645;SDS011;3864;48.180;14.178;2023-12-20T09:08:02;16.40;;;9.00;;
7645;SDS011;3864;48.180;14.178;2023-12-20T09:10:35;12.70;;;7.88;;
7645;SDS011;3864;48.180;14.178;2023-12-20T09:13:03;17.52;;;8.65;;
7645;SDS011;3864;48.180;14.178;2023-12-20T09:15:30;16.58;;;9.60;;
7645;SDS011;3864;48.180;14.178;2023-12-20T09:17:59;13.07;;;8.77;;
7645;SDS011;3864;48.180;14.178;2023-12-20T09:20:26;9.93;;;6.68;;
7645;SDS011;3864;48.180;14.178;2023-12-20T09:25:21;9.60;;;6.57;;
7645;SDS011;3864;48.180;14.178;2023-12-20T09:27:48;17.83;;;8.68;;
7645;SDS011;3864;48.180;14.178;2023-12-20T09:30:15;15.75;;;9.07;;
7645;SDS011;3864;48.180;14.178;2023-12-20T09:32:42;22.55;;;10.50;;
7645;SDS011;3864;48.180;14.178;2023-12-20T09:37:41;10.18;;;7.68;;
7645;SDS011;3864;48.180;14.178;2023-12-20T09:40:11;8.77;;;6.40;;
7645;SDS011;3864;48.180;14.178;2023-12-20T09:42:48;11.82;;;6.80;;
7645;SDS011;3864;48.180;14.178;2023-12-20T09:45:21;9.32;;;7.20;;
7645;SDS011;3864;48.180;14.178;2023-12-20T09:47:48;8.77;;;6.63;;
7645;SDS011;3864;48.180;14.178;2023-12-20T09:50:17;10.32;;;7.65;;
7645;SDS011;3864;48.180;14.178;2023-12-20T09:52:46;9.73;;;6.80;;
7645;SDS011;3864;48.180;14.178;2023-12-20T09:55:17;8.30;;;5.75;;
7645;SDS011;3864;48.180;14.178;2023-12-20T09:57:45;8.73;;;5.93;;
7645;SDS011;3864;48.180;14.178;2023-12-20T10:00:13;10.32;;;5.70;;
7645;SDS011;3864;48.180;14.178;2023-12-20T10:02:44;9.52;;;5.15;;
7645;SDS011;3864;48.180;14.178;2023-12-20T10:05:16;8.57;;;5.65;;
7645;SDS011;3864;48.180;14.178;2023-12-20T10:07:45;7.75;;;5.00;;
7645;SDS011;3864;48.180;14.178;2023-12-20T10:10:13;7.63;;;6.30;;
7645;SDS011;3864;48.180;14.178;2023-12-20T10:12:40;8.18;;;5.82;;
7645;SDS011;3864;48.180;14.178;2023-12-20T10:15:28;8.20;;;4.93;;
7645;SDS011;3864;48.180;14.178;2023-12-20T10:17:56;6.82;;;4.13;;
7645;SDS011;3864;48.180;14.178;2023-12-20T10:20:23;9.55;;;4.90;;
7645;SDS011;3864;48.180;14.178;2023-12-20T10:22:50;6.53;;;3.58;;
7645;SDS011;3864;48.180;14.178;2023-12-20T10:25:20;4.97;;;4.00;;
7645;SDS011;3864;48.180;14.178;2023-12-20T10:27:47;8.10;;;5.15;;
7645;SDS011;3864;48.180;14.178;2023-12-20T10:30:15;4.43;;;3.20;;
7645;SDS011;3864;48.180;14.178;2023-12-20T10:32:44;5.68;;;3.47;;
7645;SDS011;3864;48.180;14.178;2023-12-20T10:35:11;4.78;;;2.92;;
7645;SDS011;3864;48.180;14.178;2023-12-20T10:37:38;7.40;;;4.00;;
7645;SDS011;3864;48.180;14.178;2023-12-20T10:40:06;4.65;;;3.20;;
7645;SDS011;3864;48.180;14.178;2023-12-20T10:42:34;4.40;;;3.58;;
7645;SDS011;3864;48.180;14.178;2023-12-20T10:45:03;3.30;;;2.45;;
7645;SDS011;3864;48.180;14.178;2023-12-20T10:47:30;4.50;;;3.05;;
7645;SDS011;3864;48.180;14.178;2023-12-20T10:49:58;3.10;;;2.10;;
7645;SDS011;3864;48.180;14.178;2023-12-20T10:52:27;3.17;;;2.33;;
7645;SDS011;3864;48.180;14.178;2023-12-20T10:54:55;4.75;;;2.75;;
7645;SDS011;3864;48.180;14.178;2023-12-20T10:57:23;3.53;;;2.80;;
7645;SDS011;3864;48.180;14.178;2023-12-20T10:59:53;3.00;;;2.05;;
7645;SDS011;3864;48.180;14.178;2023-12-20T11:02:22;5.45;;;3.45;;
7645;SDS011;3864;48.180;14.178;2023-12-20T11:04:51;3.78;;;1.92;;
7645;SDS011;3864;48.180;14.178;2023-12-20T11:07:23;2.67;;;1.95;;
7645;SDS011;3864;48.180;14.178;2023-12-20T11:09:59;3.00;;;1.30;;
7645;SDS011;3864;48.180;14.178;2023-12-20T11:12:32;1.73;;;1.27;;
7645;SDS011;3864;48.180;14.178;2023-12-20T11:15:04;1.80;;;1.25;;
7645;SDS011;3864;48.180;14.178;2023-12-20T11:17:39;1.80;;;1.30;;
7645;SDS011;3864;48.180;14.178;2023-12-20T11:20:08;2.10;;;1.45;;
7645;SDS011;3864;48.180;14.178;2023-12-20T11:22:51;2.60;;;1.85;;
7645;SDS011;3864;48.180;14.178;2023-12-20T11:25:19;3.40;;;1.95;;
7645;SDS011;3864;48.180;14.178;2023-12-20T11:28:06;3.25;;;1.90;;
7645;SDS011;3864;48.180;14.178;2023-12-20T11:30:40;3.15;;;2.10;;
7645;SDS011;3864;48.180;14.178;2023-12-20T11:33:20;6.45;;;4.80;;
7645;SDS011;3864;48.180;14.178;2023-12-20T11:35:48;2.70;;;2.20;;
7645;SDS011;3864;48.180;14.178;2023-12-20T11:38:16;2.72;;;1.73;;
7645;SDS011;3864;48.180;14.178;2023-12-20T11:40:47;1.77;;;1.50;;
7645;SDS011;3864;48.180;14.178;2023-12-20T11:43:28;2.15;;;1.40;;
7645;SDS011;3864;48.180;14.178;2023-12-20T11:45:56;2.42;;;1.50;;
7645;SDS011;3864;48.180;14.178;2023-12-20T11:48:29;2.88;;;1.50;;
7645;SDS011;3864;48.180;14.178;2023-12-20T11:50:57;3.67;;;1.88;;
7645;SDS011;3864;48.180;14.178;2023-12-20T11:53:26;4.07;;;2.60;;
7645;SDS011;3864;48.180;14.178;2023-12-20T11:55:53;4.63;;;2.95;;
7645;SDS011;3864;48.180;14.178;2023-12-20T11:58:21;3.00;;;2.25;;
7645;SDS011;3864;48.180;14.178;2023-12-20T12:03:15;2.70;;;1.75;;
7645;SDS011;3864;48.180;14.178;2023-12-20T12:05:43;3.17;;;1.80;;
7645;SDS011;3864;48.180;14.178;2023-12-20T12:08:12;1.85;;;1.23;;
7645;SDS011;3864;48.180;14.178;2023-12-20T12:13:07;2.17;;;1.60;;
7645;SDS011;3864;48.180;14.178;2023-12-20T12:15:35;2.97;;;1.90;;
7645;SDS011;3864;48.180;14.178;2023-12-20T12:18:02;2.50;;;1.60;;
7645;SDS011;3864;48.180;14.178;2023-12-20T12:20:30;2.50;;;1.60;;
7645;SDS011;3864;48.180;14.178;2023-12-20T12:22:58;2.55;;;1.80;;
7645;SDS011;3864;48.180;14.178;2023-12-20T12:25:25;2.00;;;1.50;;
7645;SDS011;3864;48.180;14.178;2023-12-20T12:27:55;2.47;;;1.58;;
7645;SDS011;3864;48.180;14.178;2023-12-20T12:30:22;3.03;;;1.60;;
7645;SDS011;3864;48.180;14.178;2023-12-20T12:35:18;2.20;;;1.67;;
7645;SDS011;3864;48.180;14.178;2023-12-20T12:37:45;2.30;;;1.50;;
7645;SDS011;3864;48.180;14.178;2023-12-20T12:42:40;2.85;;;1.88;;
7645;SDS011;3864;48.180;14.178;2023-12-20T12:45:10;3.65;;;2.00;;
7645;SDS011;3864;48.180;14.178;2023-12-20T12:47:37;2.80;;;1.60;;
7645;SDS011;3864;48.180;14.178;2023-12-20T12:50:06;3.95;;;2.30;;
7645;SDS011;3864;48.180;14.178;2023-12-20T12:52:34;3.20;;;1.70;;
7645;SDS011;3864;48.180;14.178;2023-12-20T12:55:02;4.40;;;3.05;;
7645;SDS011;3864;48.180;14.178;2023-12-20T12:57:30;6.10;;;2.58;;
7645;SDS011;3864;48.180;14.178;2023-12-20T12:59:57;3.00;;;1.85;;
7645;SDS011;3864;48.180;14.178;2023-12-20T13:04:53;3.05;;;1.80;;
7645;SDS011;3864;48.180;14.178;2023-12-20T13:07:19;2.90;;;2.33;;
7645;SDS011;3864;48.180;14.178;2023-12-20T13:09:46;2.80;;;1.90;;
7645;SDS011;3864;48.180;14.178;2023-12-20T13:12:14;3.15;;;2.65;;
7645;SDS011;3864;48.180;14.178;2023-12-20T13:14:41;3.92;;;2.53;;
7645;SDS011;3864;48.180;14.178;2023-12-20T13:19:36;3.40;;;2.55;;
7645;SDS011;3864;48.180;14.178;2023-12-20T13:22:03;3.83;;;2.10;;
7645;SDS011;3864;48.180;14.178;2023-12-20T13:24:30;3.40;;;2.53;;
7645;SDS011;3864;48.180;14.178;2023-12-20T13:26:57;3.15;;;2.00;;
7645;SDS011;3864;48.180;14.178;2023-12-20T13:31:52;3.38;;;2.22;;
7645;SDS011;3864;48.180;14.178;2023-12-20T13:34:19;3.92;;;2.90;;
7645;SDS011;3864;48.180;14.178;2023-12-20T13:36:47;3.53;;;2.90;;
7645;SDS011;3864;48.180;14.178;2023-12-20T13:39:16;4.10;;;2.95;;
7645;SDS011;3864;48.180;14.178;2023-12-20T13:41:43;3.30;;;2.60;;
7645;SDS011;3864;48.180;14.178;2023-12-20T13:44:10;4.07;;;2.40;;
7645;SDS011;3864;48.180;14.178;2023-12-20T13:46:37;3.42;;;2.45;;
7645;SDS011;3864;48.180;14.178;2023-12-20T13:49:10;4.03;;;2.85;;
7645;SDS011;3864;48.180;14.178;2023-12-20T13:51:38;4.07;;;2.92;;
7645;SDS011;3864;48.180;14.178;2023-12-20T13:54:10;3.83;;;2.50;;
7645;SDS011;3864;48.180;14.178;2023-12-20T13:56:38;3.03;;;2.33;;
7645;SDS011;3864;48.180;14.178;2023-12-20T13:59:05;3.67;;;2.35;;
7645;SDS011;3864;48.180;14.178;2023-12-20T14:03:58;3.85;;;2.40;;
7645;SDS011;3864;48.180;14.178;2023-12-20T14:06:26;4.07;;;2.55;;
7645;SDS011;3864;48.180;14.178;2023-12-20T14:08:54;4.10;;;2.63;;
7645;SDS011;3864;48.180;14.178;2023-12-20T14:11:23;2.95;;;2.05;;
7645;SDS011;3864;48.180;14.178;2023-12-20T14:13:50;3.40;;;2.85;;
7645;SDS011;3864;48.180;14.178;2023-12-20T14:16:16;3.25;;;1.90;;
7645;SDS011;3864;48.180;14.178;2023-12-20T14:18:43;3.22;;;2.17;;
7645;SDS011;3864;48.180;14.178;2023-12-20T14:23:37;3.53;;;2.25;;
7645;SDS011;3864;48.180;14.178;2023-12-20T14:28:32;3.30;;;1.92;;
7645;SDS011;3864;48.180;14.178;2023-12-20T14:30:59;3.00;;;2.30;;
7645;SDS011;3864;48.180;14.178;2023-12-20T14:33:26;2.40;;;1.77;;
7645;SDS011;3864;48.180;14.178;2023-12-20T14:35:53;2.70;;;1.95;;
7645;SDS011;3864;48.180;14.178;2023-12-20T14:38:20;4.07;;;2.40;;
7645;SDS011;3864;48.180;14.178;2023-12-20T14:43:14;2.88;;;1.80;;
7645;SDS011;3864;48.180;14.178;2023-12-20T14:45:43;2.30;;;1.70;;
7645;SDS011;3864;48.180;14.178;2023-12-20T14:48:10;3.03;;;2.03;;
7645;SDS011;3864;48.180;14.178;2023-12-20T14:50:37;2.88;;;1.80;;
7645;SDS011;3864;48.180;14.178;2023-12-20T14:53:05;2.40;;;1.75;;
7645;SDS011;3864;48.180;14.178;2023-12-20T14:55:33;3.45;;;2.17;;
7645;SDS011;3864;48.180;14.178;2023-12-20T14:58:00;2.65;;;1.80;;
7645;SDS011;3864;48.180;14.178;2023-12-20T15:00:27;3.53;;;1.98;;
7645;SDS011;3864;48.180;14.178;2023-12-20T15:02:56;2.95;;;2.03;;
7645;SDS011;3864;48.180;14.178;2023-12-20T15:05:23;3.03;;;1.92;;
7645;SDS011;3864;48.180;14.178;2023-12-20T15:07:51;3.22;;;2.22;;
7645;SDS011;3864;48.180;14.178;2023-12-20T15:12:46;2.90;;;2.10;;
7645;SDS011;3864;48.180;14.178;2023-12-20T15:17:40;2.55;;;1.80;;
7645;SDS011;3864;48.180;14.178;2023-12-20T15:22:37;2.63;;;2.05;;
7645;SDS011;3864;48.180;14.178;2023-12-20T15:25:06;2.78;;;1.95;;
7645;SDS011;3864;48.180;14.178;2023-12-20T15:27:34;3.00;;;2.10;;
7645;SDS011;3864;48.180;14.178;2023-12-20T15:30:06;2.58;;;1.88;;
7645;SDS011;3864;48.180;14.178;2023-12-20T15:32:34;3.33;;;2.20;;
7645;SDS011;3864;48.180;14.178;2023-12-20T15:35:02;3.10;;;2.20;;
7645;SDS011;3864;48.180;14.178;2023-12-20T15:37:31;4.30;;;3.00;;
7645;SDS011;3864;48.180;14.178;2023-12-20T15:40:01;3.92;;;2.15;;
7645;SDS011;3864;48.180;14.178;2023-12-20T15:42:30;3.28;;;2.33;;
7645;SDS011;3864;48.180;14.178;2023-12-20T15:45:01;2.95;;;2.10;;
7645;SDS011;3864;48.180;14.178;2023-12-20T15:47:28;2.88;;;1.83;;
7645;SDS011;3864;48.180;14.178;2023-12-20T15:49:55;3.85;;;2.30;;
7645;SDS011;3864;48.180;14.178;2023-12-20T15:52:24;3.45;;;2.10;;
7645;SDS011;3864;48.180;14.178;2023-12-20T15:54:53;4.53;;;2.70;;
7645;SDS011;3864;48.180;14.178;2023-12-20T15:57:21;3.17;;;2.50;;
7645;SDS011;3864;48.180;14.178;2023-12-20T16:02:15;4.15;;;2.53;;
7645;SDS011;3864;48.180;14.178;2023-12-20T16:04:42;3.35;;;2.03;;
7645;SDS011;3864;48.180;14.178;2023-12-20T16:09:36;3.40;;;2.35;;
7645;SDS011;3864;48.180;14.178;2023-12-20T16:12:06;3.17;;;2.30;;
7645;SDS011;3864;48.180;14.178;2023-12-20T16:14:36;3.33;;;2.17;;
7645;SDS011;3864;48.180;14.178;2023-12-20T16:17:03;4.35;;;2.55;;
7645;SDS011;3864;48.180;14.178;2023-12-20T16:19:33;3.30;;;2.40;;
7645;SDS011;3864;48.180;14.178;2023-12-20T16:22:03;3.47;;;2.85;;
7645;SDS011;3864;48.180;14.178;2023-12-20T16:24:30;3.10;;;2.60;;
7645;SDS011;3864;48.180;14.178;2023-12-20T16:26:59;4.72;;;2.90;;
7645;SDS011;3864;48.180;14.178;2023-12-20T16:31:55;3.63;;;2.17;;